createdAt,value
2023-05-02T00:01:55.907Z,5.70
2023-05-02T00:04:23.597Z,5.79
2023-05-02T00:06:53.223Z,5.79
2023-05-02T00:09:20.614Z,5.65
2023-05-02T00:11:47.984Z,5.36
2023-05-02T00:14:15.164Z,5.71
2023-05-02T00:16:42.316Z,5.69
2023-05-02T00:19:09.428Z,5.51
2023-05-02T00:21:36.465Z,5.63
2023-05-02T00:24:03.599Z,5.57
2023-05-02T00:26:31.116Z,5.60
2023-05-02T00:28:58.934Z,5.35
2023-05-02T00:31:26.231Z,5.56
2023-05-02T00:33:53.349Z,5.27
2023-05-02T00:36:20.467Z,5.51
2023-05-02T00:38:47.649Z,5.29
2023-05-02T00:41:17.488Z,5.14
2023-05-02T00:43:45.054Z,5.48
2023-05-02T00:46:13.520Z,5.47
2023-05-02T00:48:40.815Z,5.37
2023-05-02T00:51:09.157Z,5.48
2023-05-02T00:53:36.449Z,5.46
2023-05-02T00:56:03.825Z,5.38
2023-05-02T00:58:31.335Z,5.41
2023-05-02T01:01:04.379Z,5.36
2023-05-02T01:04:03.902Z,5.32
2023-05-02T01:06:43.286Z,5.28
2023-05-02T01:09:41.436Z,5.28
2023-05-02T01:12:23.695Z,5.25
2023-05-02T01:14:55.904Z,5.10
2023-05-02T01:17:35.535Z,5.16
2023-05-02T01:20:10.204Z,5.12
2023-05-02T01:22:41.098Z,5.02
2023-05-02T01:25:17.428Z,5.18
2023-05-02T01:28:30.829Z,5.20
2023-05-02T01:30:59.621Z,5.02
2023-05-02T01:33:30.649Z,5.01
2023-05-02T01:36:00.264Z,5.06
2023-05-02T01:38:28.710Z,4.99
2023-05-02T01:40:59.013Z,5.02
2023-05-02T01:43:26.923Z,5.05
2023-05-02T01:45:57.178Z,4.98
2023-05-02T01:48:26.342Z,4.97
2023-05-02T01:50:55.017Z,4.98
2023-05-02T01:53:24.016Z,4.94
2023-05-02T01:55:52.926Z,4.98
2023-05-02T01:58:21.703Z,5.03
2023-05-02T02:00:50.704Z,5.02
2023-05-02T02:03:19.193Z,5.04
2023-05-02T02:05:48.723Z,5.06
2023-05-02T02:08:15.866Z,5.04
2023-05-02T02:10:46.758Z,4.94
2023-05-02T02:13:18.586Z,4.94
2023-05-02T02:15:51.178Z,4.90
2023-05-02T02:18:25.321Z,5.00
2023-05-02T02:20:54.142Z,4.96
2023-05-02T02:23:26.016Z,4.90
2023-05-02T02:25:54.733Z,4.60
2023-05-02T02:28:21.984Z,4.99
2023-05-02T02:30:49.184Z,4.97
2023-05-02T02:33:16.326Z,4.92
2023-05-02T02:35:48.543Z,4.94
2023-05-02T02:38:31.821Z,5.00
2023-05-02T02:41:12.419Z,4.93
2023-05-02T02:43:39.564Z,5.02
2023-05-02T02:46:15.280Z,5.06
2023-05-02T02:49:10.409Z,5.11
2023-05-02T02:51:50.962Z,5.12
2023-05-02T02:54:49.220Z,5.14
2023-05-02T02:57:24.421Z,5.22
2023-05-02T03:00:26.098Z,5.22
2023-05-02T03:02:54.791Z,5.21
2023-05-02T03:05:23.335Z,5.18
2023-05-02T03:07:51.453Z,5.39
2023-05-02T03:10:22.717Z,5.44
2023-05-02T03:12:49.965Z,5.56
2023-05-02T03:15:54.334Z,5.69
2023-05-02T03:18:28.397Z,5.76
2023-05-02T03:20:55.804Z,5.89
2023-05-02T03:23:23.121Z,5.93
2023-05-02T03:25:52.915Z,5.82
2023-05-02T03:28:23.671Z,6.25
2023-05-02T03:30:52.125Z,6.34
2023-05-02T03:33:20.563Z,6.32
2023-05-02T03:35:48.195Z,6.14
2023-05-02T03:38:15.318Z,6.56
2023-05-02T03:40:44.612Z,6.66
2023-05-02T03:43:12.239Z,6.73
2023-05-02T03:45:39.789Z,6.80
2023-05-02T03:48:07.113Z,6.89
2023-05-02T03:50:34.918Z,6.93
2023-05-02T03:53:01.990Z,6.95
2023-05-02T03:55:43.106Z,7.40
2023-05-02T03:58:15.596Z,7.77
2023-05-02T04:00:42.808Z,7.75
2023-05-02T04:03:10.899Z,7.99
2023-05-02T04:05:41.751Z,8.19
2023-05-02T04:08:10.943Z,8.52
2023-05-02T04:10:38.197Z,8.86
2023-05-02T04:13:08.366Z,8.97
2023-05-02T04:15:37.837Z,9.08
2023-05-02T04:18:05.697Z,9.07
2023-05-02T04:20:33.806Z,9.09
2023-05-02T04:23:01.015Z,9.11
2023-05-02T04:25:28.547Z,9.29
2023-05-02T04:27:58.055Z,9.73
2023-05-02T04:30:26.148Z,9.94
2023-05-02T04:32:59.587Z,10.30
2023-05-02T04:35:31.073Z,10.49
2023-05-02T04:37:58.115Z,10.47
2023-05-02T04:40:26.026Z,10.44
2023-05-02T04:43:00.132Z,10.29
2023-05-02T04:45:36.753Z,10.00
2023-05-02T04:48:07.042Z,10.31
2023-05-02T04:50:34.227Z,10.23
2023-05-02T04:53:01.584Z,10.38
2023-05-02T04:55:29.113Z,10.34
2023-05-02T04:57:56.240Z,10.48
2023-05-02T05:00:24.427Z,10.52
2023-05-02T05:02:51.906Z,10.59
2023-05-02T05:05:19.351Z,10.62
2023-05-02T05:07:46.486Z,10.63
2023-05-02T05:10:14.876Z,10.65
2023-05-02T05:12:47.475Z,10.60
2023-05-02T05:15:16.330Z,10.68
2023-05-02T05:17:48.582Z,10.74
2023-05-02T05:20:15.858Z,10.83
2023-05-02T05:22:43.189Z,10.88
2023-05-02T05:25:12.564Z,11.07
2023-05-02T05:27:40.638Z,11.14
2023-05-02T05:30:09.394Z,11.24
2023-05-02T05:32:37.911Z,11.35
2023-05-02T05:35:06.050Z,11.43
2023-05-02T05:37:33.789Z,11.47
2023-05-02T05:40:02.473Z,11.83
2023-05-02T05:42:30.930Z,12.07
2023-05-02T05:45:02.071Z,12.17
2023-05-02T05:47:32.294Z,12.22
2023-05-02T05:50:01.105Z,12.24
2023-05-02T05:52:33.457Z,12.33
2023-05-02T05:55:02.252Z,12.35
2023-05-02T05:57:33.245Z,12.38
2023-05-02T06:00:00.652Z,12.54
2023-05-02T06:02:28.316Z,12.65
2023-05-02T06:04:56.329Z,12.75
2023-05-02T06:07:25.262Z,13.33
2023-05-02T06:09:52.574Z,13.88
2023-05-02T06:12:21.558Z,14.14
2023-05-02T06:14:49.508Z,14.37
2023-05-02T06:17:16.922Z,14.40
2023-05-02T06:19:44.020Z,14.99
2023-05-02T06:22:14.347Z,15.26
2023-05-02T06:24:41.419Z,15.38
2023-05-02T06:27:08.460Z,15.48
2023-05-02T06:29:35.426Z,15.39
2023-05-02T06:32:02.554Z,15.25
2023-05-02T06:34:33.177Z,15.14
2023-05-02T06:37:00.273Z,15.02
2023-05-02T06:39:27.328Z,14.83
2023-05-02T06:41:58.442Z,14.70
2023-05-02T06:44:26.575Z,14.69
2023-05-02T06:46:53.570Z,14.56
2023-05-02T06:49:20.667Z,14.48
2023-05-02T06:51:47.799Z,14.76
2023-05-02T06:54:16.011Z,14.72
2023-05-02T06:56:43.482Z,14.93
2023-05-02T06:59:10.768Z,15.02
2023-05-02T07:01:37.972Z,15.07
2023-05-02T07:04:06.034Z,14.84
2023-05-02T07:06:33.731Z,14.97
2023-05-02T07:09:00.793Z,15.13
2023-05-02T07:11:28.237Z,15.25
2023-05-02T07:13:55.346Z,15.36
2023-05-02T07:16:22.446Z,15.44
2023-05-02T07:18:49.453Z,15.57
2023-05-02T07:21:18.288Z,15.71
2023-05-02T07:23:45.401Z,15.62
2023-05-02T07:26:12.519Z,15.75
2023-05-02T07:28:39.497Z,15.97
2023-05-02T07:31:06.497Z,16.21
2023-05-02T07:33:33.510Z,16.34
2023-05-02T07:36:02.221Z,16.28
2023-05-02T07:38:29.268Z,16.32
2023-05-02T07:41:00.235Z,16.38
2023-05-02T07:43:28.112Z,16.44
2023-05-02T07:45:55.485Z,16.40
2023-05-02T07:48:22.745Z,16.24
2023-05-02T07:50:49.766Z,16.17
2023-05-02T07:53:16.863Z,16.24
2023-05-02T07:55:43.890Z,16.18
2023-05-02T07:58:11.344Z,16.36
2023-05-02T08:00:38.536Z,16.34
2023-05-02T08:03:06.734Z,16.27
2023-05-02T08:05:34.178Z,16.18
2023-05-02T08:08:02.075Z,16.19
2023-05-02T08:10:29.100Z,16.13
2023-05-02T08:12:56.248Z,15.95
2023-05-02T08:15:23.405Z,16.14
2023-05-02T08:17:51.389Z,16.08
2023-05-02T08:20:18.525Z,16.23
2023-05-02T08:22:45.636Z,16.32
2023-05-02T08:25:12.610Z,16.31
2023-05-02T08:27:39.641Z,16.22
2023-05-02T08:30:07.744Z,16.42
2023-05-02T08:32:37.214Z,16.61
2023-05-02T08:35:04.520Z,16.67
2023-05-02T08:37:33.950Z,16.74
2023-05-02T08:40:01.589Z,16.86
2023-05-02T08:42:34.879Z,17.05
2023-05-02T08:45:02.648Z,17.29
2023-05-02T08:47:33.579Z,17.31
2023-05-02T08:50:02.169Z,17.38
2023-05-02T08:52:33.756Z,17.23
2023-05-02T08:55:02.539Z,17.14
2023-05-02T08:57:32.484Z,17.18
2023-05-02T08:59:59.826Z,17.13
2023-05-02T09:02:52.424Z,17.10
2023-05-02T09:05:23.386Z,17.10
2023-05-02T09:07:51.858Z,17.29
2023-05-02T09:10:19.091Z,17.66
2023-05-02T09:12:47.332Z,17.80
2023-05-02T09:15:20.575Z,18.03
2023-05-02T09:17:49.217Z,17.83
2023-05-02T09:20:16.969Z,17.60
2023-05-02T09:22:52.102Z,17.43
2023-05-02T09:25:22.666Z,17.30
2023-05-02T09:27:51.672Z,17.49
2023-05-02T09:30:23.417Z,17.70
2023-05-02T09:32:52.398Z,18.11
2023-05-02T09:35:26.135Z,18.81
2023-05-02T09:37:55.675Z,19.85
2023-05-02T09:40:24.497Z,20.58
2023-05-02T09:42:52.918Z,21.23
2023-05-02T09:45:26.772Z,21.57
2023-05-02T09:47:54.195Z,21.90
2023-05-02T09:50:41.545Z,21.97
2023-05-02T09:53:09.684Z,21.98
2023-05-02T09:55:36.898Z,21.33
2023-05-02T09:58:04.243Z,20.86
2023-05-02T10:00:45.475Z,20.46
2023-05-02T10:03:17.844Z,20.23
2023-05-02T10:05:46.820Z,19.57
2023-05-02T10:08:14.638Z,19.50
2023-05-02T10:10:46.102Z,19.22
2023-05-02T10:13:15.094Z,18.84
2023-05-02T10:15:44.731Z,18.50
2023-05-02T10:18:21.779Z,18.43
2023-05-02T10:20:56.878Z,18.03
2023-05-02T10:23:27.185Z,17.84
2023-05-02T10:25:54.773Z,17.72
2023-05-02T10:28:21.990Z,17.24
2023-05-02T10:30:50.992Z,17.47
2023-05-02T10:33:20.650Z,17.43
2023-05-02T10:35:48.442Z,17.21
2023-05-02T10:38:21.093Z,17.14
2023-05-02T10:40:56.224Z,16.93
2023-05-02T10:43:25.952Z,17.03
2023-05-02T10:45:54.969Z,17.07
2023-05-02T10:48:26.872Z,17.19
2023-05-02T10:50:59.188Z,17.15
2023-05-02T10:53:36.952Z,17.22
2023-05-02T10:56:16.747Z,16.98
2023-05-02T10:58:45.795Z,17.32
2023-05-02T11:01:28.399Z,17.33
2023-05-02T11:04:00.719Z,17.40
2023-05-02T11:06:36.541Z,17.39
2023-05-02T11:09:15.933Z,17.47
2023-05-02T11:11:43.976Z,17.56
2023-05-02T11:14:32.569Z,17.67
2023-05-02T11:17:05.726Z,17.68
2023-05-02T11:19:39.006Z,17.66
2023-05-02T11:22:18.041Z,17.72
2023-05-02T11:24:50.232Z,17.75
2023-05-02T11:27:29.402Z,17.82
2023-05-02T11:30:01.100Z,17.70
2023-05-02T11:32:46.961Z,17.82
2023-05-02T11:35:26.205Z,17.88
2023-05-02T11:38:03.223Z,17.89
2023-05-02T11:40:30.637Z,18.10
2023-05-02T11:42:59.487Z,18.00
2023-05-02T11:45:36.324Z,18.10
2023-05-02T11:48:07.345Z,18.19
2023-05-02T11:50:46.695Z,17.99
2023-05-02T11:53:19.279Z,17.70
2023-05-02T11:55:51.417Z,17.95
2023-05-02T11:58:24.188Z,17.84
2023-05-02T12:00:52.800Z,17.91
2023-05-02T12:03:30.339Z,17.93
2023-05-02T12:06:11.648Z,17.95
2023-05-02T12:08:40.145Z,17.89
2023-05-02T12:11:07.527Z,17.89
2023-05-02T12:13:35.268Z,17.83
2023-05-02T12:16:02.897Z,17.87
2023-05-02T12:18:30.281Z,17.84
2023-05-02T12:20:57.457Z,17.81
2023-05-02T12:23:26.831Z,17.70
2023-05-02T12:25:53.889Z,17.53
2023-05-02T12:28:21.180Z,17.55
2023-05-02T12:30:50.467Z,17.58
2023-05-02T12:33:18.468Z,17.59
2023-05-02T12:35:48.237Z,17.50
2023-05-02T12:38:15.563Z,17.52
2023-05-02T12:40:52.914Z,17.53
2023-05-02T12:43:22.109Z,17.51
2023-05-02T12:45:50.934Z,17.50
2023-05-02T12:48:19.719Z,17.47
2023-05-02T12:50:46.915Z,17.37
2023-05-02T12:53:14.402Z,17.36
2023-05-02T12:55:41.879Z,17.26
2023-05-02T12:58:13.578Z,17.16
2023-05-02T13:00:43.720Z,17.25
2023-05-02T13:03:12.672Z,17.16
2023-05-02T13:05:39.745Z,17.20
2023-05-02T13:08:06.798Z,17.20
2023-05-02T13:10:33.836Z,17.08
2023-05-02T13:13:01.835Z,17.10
2023-05-02T13:15:29.566Z,17.02
2023-05-02T13:17:56.791Z,16.99
2023-05-02T13:20:23.958Z,16.84
2023-05-02T13:22:50.989Z,16.84
2023-05-02T13:25:18.026Z,16.77
2023-05-02T13:27:46.355Z,16.80
2023-05-02T13:30:13.776Z,16.80
2023-05-02T13:32:41.108Z,16.74
2023-05-02T13:35:09.222Z,16.55
2023-05-02T13:37:36.297Z,16.74
2023-05-02T13:40:05.170Z,16.74
2023-05-02T13:42:32.886Z,16.46
2023-05-02T13:45:00.117Z,16.69
2023-05-02T13:47:27.275Z,16.56
2023-05-02T13:49:54.443Z,16.61
2023-05-02T13:52:21.492Z,16.55
2023-05-02T13:54:48.550Z,16.53
2023-05-02T13:57:15.631Z,16.36
2023-05-02T13:59:42.729Z,16.39
2023-05-02T14:02:09.948Z,16.40
2023-05-02T14:04:37.214Z,16.42
2023-05-02T14:07:05.089Z,16.44
2023-05-02T14:09:32.140Z,16.47
2023-05-02T14:11:59.367Z,16.50
2023-05-02T14:14:26.524Z,16.49
2023-05-02T14:16:53.673Z,16.49
2023-05-02T14:19:20.837Z,16.49
2023-05-02T14:21:48.044Z,16.49
2023-05-02T14:24:16.541Z,16.48
2023-05-02T14:26:43.594Z,16.46
2023-05-02T14:29:10.880Z,16.40
2023-05-02T14:31:38.099Z,16.40
2023-05-02T14:34:07.469Z,16.20
2023-05-02T14:36:35.812Z,16.33
2023-05-02T14:39:02.990Z,16.34
2023-05-02T14:41:30.061Z,16.32
2023-05-02T14:43:57.215Z,16.32
2023-05-02T14:46:24.356Z,16.30
2023-05-02T14:48:51.557Z,16.21
2023-05-02T14:51:18.662Z,16.26
2023-05-02T14:53:48.089Z,16.26
2023-05-02T14:56:17.255Z,16.27
2023-05-02T14:58:44.457Z,16.22
2023-05-02T15:01:21.601Z,16.28
2023-05-02T15:04:05.368Z,16.27
2023-05-02T15:06:34.228Z,16.00
2023-05-02T15:09:01.966Z,16.17
2023-05-02T15:11:29.050Z,16.17
2023-05-02T15:13:58.425Z,16.17
2023-05-02T15:16:27.404Z,16.13
2023-05-02T15:18:55.055Z,15.99
2023-05-02T15:21:22.379Z,16.08
2023-05-02T15:23:49.458Z,15.98
2023-05-02T15:26:16.540Z,15.91
2023-05-02T15:28:43.607Z,15.91
2023-05-02T15:31:10.624Z,15.94
2023-05-02T15:33:38.796Z,15.86
2023-05-02T15:36:06.103Z,15.77
2023-05-02T15:38:36.990Z,15.72
2023-05-02T15:41:04.003Z,15.66
2023-05-02T15:43:30.991Z,15.64
2023-05-02T15:45:59.328Z,15.53
2023-05-02T15:48:35.572Z,15.53
2023-05-02T15:51:03.260Z,15.45
2023-05-02T15:53:30.415Z,15.46
2023-05-02T15:55:57.458Z,15.41
2023-05-02T15:58:24.592Z,15.08
2023-05-02T16:00:52.651Z,15.31
2023-05-02T16:03:20.045Z,15.24
2023-05-02T16:05:47.285Z,15.19
2023-05-02T16:08:14.366Z,15.17
2023-05-02T16:10:43.551Z,14.76
2023-05-02T16:13:10.986Z,15.05
2023-05-02T16:15:39.219Z,14.97
2023-05-02T16:18:06.448Z,15.00
2023-05-02T16:20:36.690Z,14.93
2023-05-02T16:23:04.406Z,14.98
2023-05-02T16:25:31.906Z,14.98
2023-05-02T16:27:58.987Z,14.93
2023-05-02T16:30:27.325Z,14.89
2023-05-02T16:32:54.951Z,14.77
2023-05-02T16:35:22.018Z,14.77
2023-05-02T16:37:49.582Z,14.79
2023-05-02T16:40:16.754Z,14.54
2023-05-02T16:42:43.814Z,14.71
2023-05-02T16:45:11.186Z,14.68
2023-05-02T16:47:38.638Z,14.63
2023-05-02T16:50:06.940Z,14.66
2023-05-02T16:52:36.654Z,14.62
2023-05-02T16:55:04.924Z,14.44
2023-05-02T16:57:32.292Z,14.49
2023-05-02T16:59:59.458Z,14.40
2023-05-02T17:02:26.768Z,14.40
2023-05-02T17:04:54.124Z,14.26
2023-05-02T17:07:21.176Z,14.02
2023-05-02T17:09:48.207Z,14.24
2023-05-02T17:12:15.808Z,14.06
2023-05-02T17:14:43.528Z,14.15
2023-05-02T17:17:10.917Z,14.07
2023-05-02T17:19:39.604Z,14.08
2023-05-02T17:22:07.038Z,14.09
2023-05-02T17:24:34.589Z,13.99
2023-05-02T17:27:02.936Z,14.04
2023-05-02T17:29:29.980Z,14.00
2023-05-02T17:32:02.851Z,13.94
2023-05-02T17:34:30.584Z,13.84
2023-05-02T17:36:57.631Z,13.95
2023-05-02T17:39:24.973Z,13.85
2023-05-02T17:41:52.144Z,13.80
2023-05-02T17:44:19.213Z,13.84
2023-05-02T17:46:46.719Z,13.83
2023-05-02T17:49:14.075Z,13.78
2023-05-02T17:51:41.199Z,13.61
2023-05-02T17:54:08.219Z,13.55
2023-05-02T17:56:36.868Z,13.54
2023-05-02T17:59:07.046Z,13.56
2023-05-02T18:01:34.114Z,13.55
2023-05-02T18:04:01.454Z,13.19
2023-05-02T18:06:28.756Z,13.38
2023-05-02T18:08:56.151Z,13.38
2023-05-02T18:11:24.413Z,13.36
2023-05-02T18:13:52.090Z,13.30
2023-05-02T18:16:19.513Z,13.29
2023-05-02T18:18:46.593Z,13.24
2023-05-02T18:21:21.398Z,13.10
2023-05-02T18:23:48.985Z,12.87
2023-05-02T18:26:16.023Z,12.81
2023-05-02T18:28:44.754Z,12.98
2023-05-02T18:31:18.147Z,12.94
2023-05-02T18:33:46.761Z,12.85
2023-05-02T18:36:15.812Z,12.81
2023-05-02T18:38:42.884Z,12.74
2023-05-02T18:41:10.103Z,12.70
2023-05-02T18:43:37.546Z,12.58
2023-05-02T18:46:04.769Z,12.59
2023-05-02T18:48:32.486Z,12.56
2023-05-02T18:50:59.486Z,12.52
2023-05-02T18:53:26.585Z,12.32
2023-05-02T18:55:54.308Z,12.35
2023-05-02T18:58:22.693Z,12.36
2023-05-02T19:00:49.859Z,12.33
2023-05-02T19:03:17.138Z,12.29
2023-05-02T19:05:44.614Z,12.27
2023-05-02T19:08:12.165Z,12.21
2023-05-02T19:10:39.229Z,12.19
2023-05-02T19:13:06.408Z,12.18
2023-05-02T19:15:34.094Z,11.96
2023-05-02T19:18:01.246Z,12.03
2023-05-02T19:20:29.931Z,12.04
2023-05-02T19:23:15.290Z,11.89
2023-05-02T19:25:46.178Z,11.86
2023-05-02T19:28:15.342Z,11.90
2023-05-02T19:30:45.374Z,11.85
2023-05-02T19:33:12.549Z,11.84
2023-05-02T19:35:39.699Z,11.88
2023-05-02T19:38:06.786Z,11.87
2023-05-02T19:40:33.834Z,11.83
2023-05-02T19:43:01.087Z,11.76
2023-05-02T19:45:28.317Z,11.39
2023-05-02T19:47:56.244Z,11.72
2023-05-02T19:50:25.788Z,11.65
2023-05-02T19:52:52.873Z,11.55
2023-05-02T19:55:20.953Z,11.63
2023-05-02T19:57:48.933Z,11.47
2023-05-02T20:00:16.380Z,11.49
2023-05-02T20:02:45.429Z,11.42
2023-05-02T20:05:12.662Z,11.58
2023-05-02T20:07:39.674Z,11.59
2023-05-02T20:10:07.561Z,11.56
2023-05-02T20:12:34.639Z,11.53
2023-05-02T20:15:02.410Z,11.50
2023-05-02T20:17:32.475Z,11.54
2023-05-02T20:19:59.823Z,11.37
2023-05-02T20:22:27.059Z,11.50
2023-05-02T20:24:54.094Z,11.45
2023-05-02T20:27:21.059Z,11.54
2023-05-02T20:29:48.120Z,11.59
2023-05-02T20:32:17.987Z,11.54
2023-05-02T20:34:45.230Z,11.54
2023-05-02T20:37:13.703Z,11.56
2023-05-02T20:39:40.757Z,11.61
2023-05-02T20:42:08.718Z,11.62
2023-05-02T20:44:36.624Z,11.55
2023-05-02T20:47:07.101Z,11.70
2023-05-02T20:49:34.196Z,11.62
2023-05-02T20:52:05.632Z,11.69
2023-05-02T20:54:32.935Z,11.67
2023-05-02T20:57:00.060Z,11.58
2023-05-02T20:59:27.215Z,11.67
2023-05-02T21:01:54.429Z,11.59
2023-05-02T21:04:21.916Z,11.58
2023-05-02T21:06:49.140Z,11.55
2023-05-02T21:09:17.169Z,11.53
2023-05-02T21:11:44.675Z,11.49
2023-05-02T21:14:11.979Z,11.34
2023-05-02T21:16:39.257Z,11.41
2023-05-02T21:19:06.380Z,11.08
2023-05-02T21:21:33.620Z,11.25
2023-05-02T21:24:01.507Z,11.27
2023-05-02T21:26:28.615Z,11.22
2023-05-02T21:28:55.717Z,11.22
2023-05-02T21:31:22.838Z,11.19
2023-05-02T21:33:49.941Z,11.14
2023-05-02T21:36:16.940Z,11.09
2023-05-02T21:38:43.934Z,10.95
2023-05-02T21:41:10.987Z,11.09
2023-05-02T21:43:39.637Z,11.06
2023-05-02T21:46:07.005Z,11.05
2023-05-02T21:48:34.400Z,10.96
2023-05-02T21:51:05.402Z,11.04
2023-05-02T21:53:32.500Z,11.00
2023-05-02T21:55:59.489Z,11.04
2023-05-02T21:58:26.815Z,10.94
2023-05-02T22:00:53.877Z,10.94
2023-05-02T22:03:21.360Z,10.96
2023-05-02T22:05:49.955Z,10.98
2023-05-02T22:08:17.763Z,10.84
2023-05-02T22:10:45.069Z,10.92
2023-05-02T22:13:13.970Z,10.91
2023-05-02T22:15:45.767Z,10.85
2023-05-02T22:18:17.894Z,10.77
2023-05-02T22:20:45.462Z,10.71
2023-05-02T22:23:12.992Z,10.74
2023-05-02T22:25:42.277Z,10.73
2023-05-02T22:28:11.654Z,10.68
2023-05-02T22:30:39.395Z,10.59
2023-05-02T22:33:07.689Z,10.61
2023-05-02T22:35:34.851Z,10.50
2023-05-02T22:38:02.430Z,10.49
2023-05-02T22:40:33.705Z,10.47
2023-05-02T22:43:01.114Z,10.48
2023-05-02T22:45:28.281Z,10.56
2023-05-02T22:47:55.806Z,10.43
2023-05-02T22:50:23.470Z,10.45
2023-05-02T22:52:51.215Z,10.49
2023-05-02T22:55:18.244Z,10.47
2023-05-02T22:57:45.539Z,10.38
2023-05-02T23:00:13.188Z,10.33
2023-05-02T23:02:40.317Z,10.34
2023-05-02T23:05:07.824Z,10.34
2023-05-02T23:07:35.336Z,10.34
2023-05-02T23:10:02.434Z,10.21
2023-05-02T23:12:31.623Z,10.29
2023-05-02T23:14:58.685Z,9.80
2023-05-02T23:17:25.882Z,10.26
2023-05-02T23:19:53.451Z,10.23
2023-05-02T23:22:20.452Z,10.20
2023-05-02T23:24:48.097Z,10.23
2023-05-02T23:27:15.344Z,10.23
2023-05-02T23:29:42.576Z,10.27
2023-05-02T23:32:09.680Z,10.19
2023-05-02T23:34:37.196Z,10.16
2023-05-02T23:37:06.243Z,10.22
2023-05-02T23:39:33.585Z,10.21
2023-05-02T23:42:01.985Z,10.09
2023-05-02T23:44:29.064Z,10.14
2023-05-02T23:46:56.140Z,9.75
2023-05-02T23:49:23.201Z,10.02
2023-05-02T23:51:50.232Z,9.75
2023-05-02T23:54:17.313Z,9.90
2023-05-02T23:56:44.327Z,9.93
2023-05-02T23:59:11.487Z,9.82
